Time;durP1;ratioP1;P1;durP2;ratioP2;P2;SDS_P1;SDS_P2;PMS_P1;PMS_P2;Temp;Humidity;BMP_temperature;BMP_pressure;BME280_temperature;BME280_humidity;BME280_pressure;Samples;Min_cycle;Max_cycle;Signal;HPM_P1;HPM_P2
2022/09/02 00:00:16;;;;;;;2.65;0.75;;;;;;;13.34;55.33;101237.66;4950345;28;98683;-62
2022/09/02 00:03:21;;;;;;;4.82;0.60;;;;;;;13.34;55.54;101226.00;4936253;28;98312;-62
2022/09/02 00:06:26;;;;;;;2.17;0.90;;;;;;;13.37;55.72;101225.47;4955389;28;98315;-69
2022/09/02 00:09:29;;;;;;;3.10;0.90;;;;;;;13.37;55.51;101225.47;4950556;28;97879;-62
2022/09/02 00:12:31;;;;;;;1.90;0.77;;;;;;;13.39;55.77;101218.69;4947627;28;98272;-63
2022/09/02 00:15:33;;;;;;;2.17;0.70;;;;;;;13.39;55.72;101215.97;4940900;28;99117;-62
2022/09/02 00:18:36;;;;;;;1.95;0.60;;;;;;;13.43;55.78;101216.25;4940772;28;98344;-69
2022/09/02 00:21:41;;;;;;;1.17;0.60;;;;;;;13.45;55.91;101219.53;4952778;28;98291;-69
2022/09/02 00:24:43;;;;;;;1.88;0.50;;;;;;;13.46;56.03;101213.84;4950011;28;100003;-63
2022/09/02 00:27:47;;;;;;;1.65;0.60;;;;;;;13.48;55.95;101214.41;4948358;28;98105;-62
2022/09/02 00:30:40;;;;;;;;;;;;;;;13.50;55.17;101208.69;4956061;28;98160;-63
2022/09/02 00:33:45;;;;;;;1.27;0.50;;;;;;;13.48;55.73;101205.47;4939868;28;98097;-62
2022/09/02 00:36:47;;;;;;;1.63;0.63;;;;;;;13.49;55.78;101207.88;4957892;28;98002;-62
2022/09/02 00:39:50;;;;;;;1.67;0.50;;;;;;;13.50;55.95;101206.00;4942386;28;98271;-69
2022/09/02 00:42:52;;;;;;;2.00;0.60;;;;;;;13.54;55.77;101206.25;4950823;28;97993;-64
2022/09/02 00:45:54;;;;;;;2.45;0.77;;;;;;;13.61;56.08;101196.78;4946909;28;97907;-69
2022/09/02 00:49:04;;;;;;;5.05;0.70;;;;;;;13.69;55.89;101192.75;4967534;28;97972;-62
2022/09/02 00:52:09;;;;;;;1.48;0.60;;;;;;;13.72;56.01;101198.44;4954902;28;98414;-62
2022/09/02 00:55:24;;;;;;;1.38;0.38;;;;;;;13.79;55.70;101191.91;4953251;28;98971;-69
2022/09/02 00:58:47;;;;;;;2.28;0.63;;;;;;;13.81;55.68;101201.41;4950834;28;99083;-69
2022/09/02 01:01:52;;;;;;;1.52;0.70;;;;;;;13.80;56.00;101202.50;4942144;28;98553;-69
2022/09/02 01:04:57;;;;;;;1.95;0.40;;;;;;;13.81;56.05;101203.31;4957202;28;98724;-70
2022/09/02 01:08:01;;;;;;;1.90;0.60;;;;;;;13.78;56.18;101209.25;4946370;28;97847;-62
2022/09/02 01:11:04;;;;;;;1.85;0.50;;;;;;;13.74;56.22;101209.78;4954269;28;97668;-69
2022/09/02 01:14:11;;;;;;;1.83;0.52;;;;;;;13.72;55.91;101201.16;4942902;28;98246;-69
2022/09/02 01:17:15;;;;;;;3.13;0.47;;;;;;;13.70;56.26;101199.78;4947209;28;98453;-69
2022/09/02 01:20:33;;;;;;;1.13;0.45;;;;;;;13.66;56.03;101204.91;4958335;28;98812;-62
2022/09/02 01:23:49;;;;;;;2.00;0.57;;;;;;;13.62;56.32;101203.84;4931226;28;98177;-62
2022/09/02 01:26:51;;;;;;;1.30;0.60;;;;;;;13.58;56.40;101205.47;4949107;28;98096;-62
2022/09/02 01:29:57;;;;;;;1.27;0.40;;;;;;;13.55;56.30;101202.47;4942862;28;100381;-63
2022/09/02 01:32:59;;;;;;;1.92;0.50;;;;;;;13.48;56.14;101210.88;4953118;28;98207;-69
2022/09/02 01:36:03;;;;;;;1.00;0.50;;;;;;;13.41;56.42;101208.41;4961009;28;98046;-70
2022/09/02 01:39:07;;;;;;;1.73;0.50;;;;;;;13.38;56.16;101206.25;4949137;28;98350;-62
2022/09/02 01:42:10;;;;;;;1.23;0.40;;;;;;;13.34;56.63;101207.84;4956444;28;98841;-69
2022/09/02 01:45:12;;;;;;;1.73;0.57;;;;;;;13.29;56.54;101202.44;4945509;28;98322;-63
2022/09/02 01:48:14;;;;;;;1.30;0.60;;;;;;;13.25;56.30;101207.56;4938149;28;98206;-71
2022/09/02 01:51:22;;;;;;;1.45;0.40;;;;;;;13.22;56.36;101207.25;4954475;28;98887;-69
2022/09/02 01:54:37;;;;;;;1.30;0.50;;;;;;;13.18;56.40;101203.47;4931732;28;100011;-63
2022/09/02 01:57:40;;;;;;;1.92;0.50;;;;;;;13.14;56.41;101199.66;4947562;28;97978;-62
2022/09/02 02:00:33;;;;;;;;;;;;;;;13.15;55.91;101201.28;4942905;28;98233;-69
2022/09/02 02:03:47;;;;;;;1.20;0.30;;;;;;;13.08;56.06;101196.09;4953854;28;98365;-62
2022/09/02 02:06:48;;;;;;;1.25;0.45;;;;;;;13.07;56.24;101196.38;4939309;28;97976;-64
2022/09/02 02:09:52;;;;;;;1.13;0.40;;;;;;;13.06;56.39;101189.34;4954109;28;98215;-63
2022/09/02 02:12:54;;;;;;;1.13;0.20;;;;;;;13.06;56.37;101189.34;4953401;28;98078;-69
2022/09/02 02:15:57;;;;;;;2.25;0.47;;;;;;;13.03;56.52;101183.38;4943992;28;98237;-63
2022/09/02 02:19:02;;;;;;;2.70;0.68;;;;;;;13.01;56.60;101176.63;4940759;28;98024;-62
2022/09/02 02:22:06;;;;;;;1.38;0.30;;;;;;;12.98;56.67;101186.09;4928712;28;98501;-69
2022/09/02 02:25:08;;;;;;;1.50;0.43;;;;;;;12.95;56.47;101177.69;4954151;28;98215;-69
2022/09/02 02:28:11;;;;;;;3.10;0.57;;;;;;;12.92;56.67;101184.44;4953531;28;99998;-62
2022/09/02 02:31:15;;;;;;;1.10;0.32;;;;;;;12.88;56.63;101172.50;4943873;28;98356;-70
2022/09/02 02:34:17;;;;;;;1.10;0.30;;;;;;;12.85;56.59;101169.50;4936692;28;98752;-68
2022/09/02 02:37:20;;;;;;;0.95;0.38;;;;;;;12.82;56.55;101184.41;4943712;28;98166;-62
2022/09/02 02:40:16;;;;;;;;;;;;;;;12.84;56.37;101176.81;4936515;28;99496;-62
2022/09/02 02:43:21;;;;;;;1.25;0.32;;;;;;;12.76;56.51;101183.56;4960485;28;100006;-62
2022/09/02 02:46:23;;;;;;;1.35;0.40;;;;;;;12.73;56.60;101181.41;4935415;28;99955;-69
2022/09/02 02:49:25;;;;;;;1.33;0.60;;;;;;;12.71;56.63;101178.13;4961525;28;98377;-62
2022/09/02 02:52:29;;;;;;;1.00;0.30;;;;;;;12.68;56.72;101170.53;4944100;28;98210;-69
2022/09/02 02:55:33;;;;;;;2.45;0.60;;;;;;;12.63;56.76;101183.25;4956605;28;98639;-69
2022/09/02 02:58:35;;;;;;;2.23;0.50;;;;;;;12.60;56.75;101178.34;4937987;28;98045;-69
2022/09/02 03:01:38;;;;;;;2.00;0.37;;;;;;;12.56;56.74;101177.25;4951334;28;98849;-63
2022/09/02 03:04:43;;;;;;;1.10;0.28;;;;;;;12.48;56.90;101165.84;4899447;28;98485;-62
2022/09/02 03:07:45;;;;;;;1.95;0.40;;;;;;;12.47;57.07;101176.94;4931225;28;98739;-70
2022/09/02 03:10:53;;;;;;;1.30;0.40;;;;;;;12.41;57.28;101169.88;4929711;28;99605;-69
2022/09/02 03:13:56;;;;;;;1.38;0.40;;;;;;;12.37;57.13;101172.28;4928587;28;97886;-69
2022/09/02 03:16:49;;;;;;;;;;;;;;;12.36;56.30;101173.38;4919740;28;98285;-69
2022/09/02 03:19:53;;;;;;;0.90;0.30;;;;;;;12.26;56.83;101171.44;4934803;28;100473;-62
2022/09/02 03:22:55;;;;;;;1.35;0.35;;;;;;;12.21;56.88;101179.47;4922895;28;97984;-69
2022/09/02 03:26:11;;;;;;;2.47;0.50;;;;;;;12.16;57.01;101170.53;4923806;28;98495;-62
2022/09/02 03:29:16;;;;;;;0.88;0.28;;;;;;;12.09;56.95;101176.16;4924431;28;99959;-65
2022/09/02 03:32:21;;;;;;;0.80;0.40;;;;;;;12.05;56.89;101172.34;4899351;28;98698;-69
2022/09/02 03:35:24;;;;;;;1.17;0.30;;;;;;;12.00;56.96;101166.94;4913870;28;98099;-69
2022/09/02 03:38:28;;;;;;;;;;;;;;;12.00;56.49;101172.31;4933631;28;97772;-62
2022/09/02 03:41:30;;;;;;;0.82;0.30;;;;;;;11.92;57.12;101165.53;4917856;28;98279;-62
2022/09/02 03:44:33;;;;;;;1.20;0.30;;;;;;;11.91;57.13;101173.91;4905017;28;98187;-62
2022/09/02 03:47:42;;;;;;;2.58;0.57;;;;;;;11.88;57.05;101172.50;4914748;28;97964;-62
2022/09/02 03:51:02;;;;;;;1.30;0.50;;;;;;;11.86;57.10;101168.44;4946624;28;99014;-69
2022/09/02 03:54:07;;;;;;;1.88;0.30;;;;;;;11.82;57.03;101170.81;4942618;28;98302;-62
2022/09/02 03:57:10;;;;;;;1.05;0.43;;;;;;;11.81;57.38;101166.47;4906325;28;98079;-62
2022/09/02 04:00:04;;;;;;;;;;;;;;;11.84;56.86;101170.59;4950015;28;97973;-62
2022/09/02 04:03:06;;;;;;;1.23;0.32;;;;;;;11.82;57.20;101170.00;4974832;28;98003;-69
2022/09/02 04:06:24;;;;;;;1.30;0.40;;;;;;;11.84;57.20;101173.28;4941203;28;98122;-62
2022/09/02 04:09:30;;;;;;;1.70;0.35;;;;;;;11.87;57.37;101164.66;4940518;28;98290;-62
2022/09/02 04:12:33;;;;;;;0.73;0.40;;;;;;;11.91;57.24;101163.09;4944627;28;98021;-63
2022/09/02 04:15:41;;;;;;;1.15;0.40;;;;;;;11.96;57.53;101173.91;4956551;28;98455;-62
2022/09/02 04:18:43;;;;;;;1.20;0.40;;;;;;;11.97;57.58;101168.25;4941397;28;98116;-68
2022/09/02 04:21:50;;;;;;;1.35;0.30;;;;;;;11.99;57.49;101168.00;4949633;28;100600;-62
2022/09/02 04:24:51;;;;;;;0.93;0.35;;;;;;;12.03;57.62;101169.94;4954123;28;97821;-68
2022/09/02 04:27:53;;;;;;;1.52;0.52;;;;;;;12.08;57.50;101171.03;4940071;28;98138;-62
2022/09/02 04:30:56;;;;;;;1.02;0.35;;;;;;;12.11;57.70;101174.03;4952529;28;98518;-70
2022/09/02 04:34:07;;;;;;;1.20;0.60;;;;;;;12.14;57.40;101172.69;4950832;28;97852;-62
2022/09/02 04:37:12;;;;;;;3.92;0.32;;;;;;;12.14;57.36;101172.69;4961745;28;98021;-69
2022/09/02 04:40:14;;;;;;;1.95;0.50;;;;;;;12.16;57.70;101173.25;4955369;28;98752;-69
2022/09/02 04:43:17;;;;;;;1.90;0.50;;;;;;;12.15;57.69;101172.44;4950691;28;98250;-62
2022/09/02 04:46:24;;;;;;;2.35;0.30;;;;;;;12.14;58.15;101178.09;4953140;28;100590;-69
2022/09/02 04:49:26;;;;;;;1.30;0.40;;;;;;;12.12;57.84;101181.06;4972271;28;98076;-69
2022/09/02 04:52:30;;;;;;;1.27;0.40;;;;;;;12.17;57.80;101178.38;4944216;28;98191;-69
2022/09/02 04:55:32;;;;;;;2.25;0.38;;;;;;;12.26;57.88;101176.84;4961213;28;100292;-69
2022/09/02 04:58:35;;;;;;;1.52;0.52;;;;;;;12.40;57.77;101184.47;4942473;28;98314;-63
2022/09/02 05:01:55;;;;;;;0.60;0.40;;;;;;;12.53;57.57;101178.56;4959900;28;99322;-62
2022/09/02 05:04:58;;;;;;;1.95;0.30;;;;;;;12.64;57.55;101182.16;4937218;28;98255;-69
2022/09/02 05:08:15;;;;;;;1.45;0.43;;;;;;;12.78;57.45;101177.91;4952578;28;100019;-69
2022/09/02 05:11:16;;;;;;;1.23;0.30;;;;;;;12.88;57.50;101179.81;4952892;28;98630;-69
2022/09/02 05:14:18;;;;;;;2.10;0.52;;;;;;;13.00;57.41;101180.38;4947890;28;98753;-62
2022/09/02 05:17:22;;;;;;;1.33;0.30;;;;;;;13.07;57.47;101183.66;4951907;28;98018;-68
2022/09/02 05:20:28;;;;;;;1.50;0.30;;;;;;;13.13;57.48;101185.31;4947684;28;98228;-69
2022/09/02 05:23:35;;;;;;;0.93;0.50;;;;;;;13.17;57.61;101181.00;4949811;28;98145;-63
2022/09/02 05:26:55;;;;;;;1.23;0.50;;;;;;;13.23;57.31;101187.25;4934462;28;97841;-62
2022/09/02 05:29:58;;;;;;;1.40;0.38;;;;;;;13.24;57.52;101183.47;4946406;28;98092;-62
2022/09/02 05:33:06;;;;;;;2.65;0.40;;;;;;;13.34;57.42;101180.78;4951656;28;98290;-62
2022/09/02 05:36:16;;;;;;;1.92;0.40;;;;;;;13.78;56.69;101174.84;4957999;28;98610;-69
2022/09/02 05:39:19;;;;;;;0.95;0.40;;;;;;;13.85;56.65;101175.41;4946515;28;98991;-69
2022/09/02 05:42:23;;;;;;;1.70;0.35;;;;;;;13.74;56.72;101169.16;4946694;28;98431;-69
2022/09/02 05:45:29;;;;;;;1.20;0.43;;;;;;;14.03;56.50;101181.31;4971413;28;99168;-69
2022/09/02 05:52:18;;;;;;;2.13;0.50;;;;;;;14.04;56.81;101183.78;4953993;28;99404;-63
2022/09/02 05:55:23;;;;;;;1.05;0.38;;;;;;;14.07;56.61;101177.81;4964720;28;97776;-69
2022/09/02 05:58:16;;;;;;;;;;;;;;;14.20;56.39;101177.25;4951082;28;98010;-68
2022/09/02 06:01:37;;;;;;;1.77;0.50;;;;;;;14.21;56.68;101173.44;4969103;28;98654;-70
2022/09/02 06:04:53;;;;;;;3.05;0.40;;;;;;;14.33;56.37;101175.03;4927110;28;98240;-63
2022/09/02 06:07:58;;;;;;;1.02;0.40;;;;;;;14.41;56.46;101174.47;4950885;28;98265;-63
2022/09/02 06:11:08;;;;;;;1.50;0.52;;;;;;;14.53;56.66;101172.31;4955843;28;98070;-63
2022/09/02 06:14:17;;;;;;;2.88;0.35;;;;;;;14.61;56.50;101168.22;4956805;28;99031;-69
2022/09/02 06:17:23;;;;;;;2.67;0.40;;;;;;;14.75;56.45;101180.09;4955724;28;98045;-69
2022/09/02 06:20:31;;;;;;;1.00;0.40;;;;;;;14.90;56.56;101182.75;4953548;28;98521;-63
2022/09/02 06:23:34;;;;;;;1.15;0.30;;;;;;;15.05;56.51;101181.88;4950320;28;98134;-70
2022/09/02 06:26:39;;;;;;;1.65;0.47;;;;;;;15.19;56.08;101182.84;4969176;28;99183;-70
2022/09/02 06:30:17;;;;;;;1.60;0.30;;;;;;;15.33;56.22;101182.25;4957824;28;97714;-70
2022/09/02 06:33:40;;;;;;;0.98;0.40;;;;;;;15.52;55.94;101190.50;4956608;28;99338;-64
2022/09/02 06:36:45;;;;;;;0.90;0.35;;;;;;;15.67;55.87;101183.09;4951796;28;98775;-63
2022/09/02 06:40:20;;;;;;;1.40;0.40;;;;;;;16.07;55.57;101181.13;4955871;28;98160;-70
2022/09/02 06:43:22;;;;;;;0.73;0.30;;;;;;;16.56;55.13;101185.50;4923347;28;99998;-69
2022/09/02 06:46:26;;;;;;;1.13;0.22;;;;;;;16.86;54.77;101178.91;4930465;28;98407;-69
2022/09/02 06:49:28;;;;;;;1.30;0.22;;;;;;;17.06;54.57;101174.28;4945986;28;97913;-70
2022/09/02 06:52:30;;;;;;;1.87;0.30;;;;;;;17.22;54.37;101180.34;4941768;28;97961;-63
2022/09/02 06:55:32;;;;;;;0.57;0.20;;;;;;;17.35;54.56;101182.31;4968550;28;99388;-70
2022/09/02 06:58:38;;;;;;;1.10;0.40;;;;;;;17.50;54.42;101184.81;4952827;28;97862;-63
2022/09/02 07:02:00;;;;;;;0.90;0.17;;;;;;;17.66;54.28;101182.63;4906011;28;98190;-63
2022/09/02 07:08:31;;;;;;;1.92;0.52;;;;;;;18.13;53.45;101178.06;4902693;28;98618;-71
2022/09/02 07:11:46;;;;;;;2.38;0.40;;;;;;;18.22;53.32;101178.97;4911609;28;98488;-63
2022/09/02 07:14:49;;;;;;;1.98;0.38;;;;;;;18.43;52.84;101173.09;4909438;28;98337;-64
2022/09/02 07:17:54;;;;;;;1.65;0.30;;;;;;;18.73;52.71;101179.91;4898847;28;99181;-70
2022/09/02 07:20:54;;;;;;;0.93;0.20;;;;;;;18.94;52.15;101174.81;4912926;28;97901;-70
2022/09/02 07:24:01;;;;;;;0.80;0.30;;;;;;;19.20;52.09;101173.16;4923177;28;98574;-64
2022/09/02 07:27:08;;;;;;;0.50;0.20;;;;;;;19.43;51.70;101178.66;4911715;28;98464;-70
2022/09/02 07:30:11;;;;;;;3.40;0.40;;;;;;;19.63;51.27;101178.19;4925586;28;98897;-64
2022/09/02 07:33:13;;;;;;;0.63;0.20;;;;;;;19.84;50.89;101181.19;4900249;28;98250;-64
2022/09/02 07:36:45;;;;;;;1.00;0.25;;;;;;;20.17;50.60;101181.72;4918883;28;99131;-64
2022/09/02 07:39:47;;;;;;;0.70;0.15;;;;;;;20.38;50.02;101192.91;4935563;28;98670;-64
2022/09/02 07:42:49;;;;;;;0.68;0.20;;;;;;;20.63;49.71;101190.63;4917808;28;98215;-64
2022/09/02 07:45:54;;;;;;;0.50;0.20;;;;;;;20.90;49.36;101184.09;4946156;28;98345;-72
2022/09/02 07:48:57;;;;;;;0.73;0.20;;;;;;;21.16;48.82;101175.91;4915010;28;98014;-71
2022/09/02 07:52:22;;;;;;;1.55;0.20;;;;;;;21.50;48.35;101183.38;4928475;28;98464;-64
2022/09/02 07:55:29;;;;;;;0.28;0.10;;;;;;;21.94;47.78;101184.09;4932993;28;98472;-72
2022/09/02 07:58:32;;;;;;;0.85;0.10;;;;;;;22.40;47.17;101183.31;4930981;28;98027;-72
2022/09/02 08:01:42;;;;;;;1.23;0.22;;;;;;;22.93;46.48;101186.63;4929235;28;97915;-65
2022/09/02 08:04:46;;;;;;;0.70;0.20;;;;;;;23.57;45.12;101186.25;4929443;28;98512;-64
2022/09/02 08:07:59;;;;;;;1.75;0.10;;;;;;;24.33;44.41;101189.69;4921231;28;98323;-65
2022/09/02 08:11:03;;;;;;;0.45;0.10;;;;;;;25.03;43.37;101193.09;4911581;28;98991;-66
2022/09/02 08:14:11;;;;;;;1.50;0.20;;;;;;;25.83;42.46;101186.00;4919820;28;99784;-65
2022/09/02 08:17:15;;;;;;;0.50;0.10;;;;;;;26.65;42.11;101183.34;4908035;28;98241;-73
2022/09/02 08:20:18;;;;;;;0.65;0.10;;;;;;;27.54;40.62;101181.69;4940617;28;98367;-73
2022/09/02 08:23:23;;;;;;;0.52;0.10;;;;;;;28.41;40.08;101184.88;4927039;28;97873;-66
2022/09/02 08:26:27;;;;;;;0.73;0.10;;;;;;;29.35;38.61;101185.03;4915439;28;97914;-73
2022/09/02 08:29:31;;;;;;;0.52;0.10;;;;;;;30.36;37.91;101182.13;4913009;28;98085;-74
2022/09/02 08:32:33;;;;;;;1.83;0.10;;;;;;;31.31;37.01;101179.53;4915463;28;98329;-74
2022/09/02 08:35:26;;;;;;;;;;;;;;;32.71;36.72;101184.88;4935889;28;98015;-74
2022/09/02 08:38:21;;;;;;;0.28;0.10;;;;;;;32.94;36.06;101172.50;4919532;28;98522;-74
2022/09/02 08:41:29;;;;;;;0.20;0.05;;;;;;;33.53;35.00;101177.47;4910004;28;100423;-74
2022/09/02 08:44:36;;;;;;;0.57;0.10;;;;;;;34.37;34.27;101186.41;4921801;28;98542;-67
2022/09/02 08:47:39;;;;;;;0.32;0.10;;;;;;;35.10;33.68;101167.72;4914203;28;97855;-66
2022/09/02 08:50:43;;;;;;;0.90;0.15;;;;;;;35.67;32.85;101171.75;4899985;28;98796;-66
2022/09/02 08:54:22;;;;;;;1.00;0.10;;;;;;;36.67;31.75;101162.47;4914045;28;98626;-67
2022/09/02 08:57:26;;;;;;;0.73;0.10;;;;;;;37.27;31.37;101154.03;4934492;28;98331;-75
2022/09/02 09:00:28;;;;;;;0.10;0.00;;;;;;;37.96;30.69;101151.25;4954650;28;98177;-76
2022/09/02 09:04:01;;;;;;;0.30;0.00;;;;;;;38.85;29.77;101148.91;4949406;28;98733;-75
2022/09/02 09:07:31;;;;;;;0.20;0.00;;;;;;;39.65;28.55;101137.59;4937996;28;98144;-76
2022/09/02 09:10:57;;;;;;;0.10;0.00;;;;;;;39.98;28.23;101135.31;4954131;28;100210;-68
2022/09/02 09:14:19;;;;;;;0.10;0.00;;;;;;;40.71;27.57;101123.88;4925976;28;99678;-77
2022/09/02 09:17:48;;;;;;;0.32;0.10;;;;;;;41.25;27.47;101119.03;4947140;28;98204;-76
2022/09/02 09:21:00;;;;;;;0.80;0.10;;;;;;;41.23;27.10;101115.88;4934102;28;98257;-77
2022/09/02 09:24:14;;;;;;;0.10;0.05;;;;;;;40.66;27.48;101109.56;4930405;28;97986;-76
2022/09/02 09:27:18;;;;;;;0.38;0.10;;;;;;;40.03;27.83;101104.94;4951219;28;100174;-76
2022/09/02 09:30:22;;;;;;;0.43;0.10;;;;;;;39.82;27.20;101095.19;4953304;28;98182;-77
2022/09/02 09:33:46;;;;;;;0.13;0.03;;;;;;;40.75;26.50;101098.31;4935542;28;98271;-77
2022/09/02 09:37:17;;;;;;;0.25;0.08;;;;;;;41.04;25.73;101091.63;4954932;28;98446;-68
2022/09/02 09:40:46;;;;;;;0.13;0.07;;;;;;;42.05;25.10;101092.69;4932494;28;98296;-68
2022/09/02 09:43:50;;;;;;;0.88;0.10;;;;;;;42.98;24.24;101090.56;4886179;28;97978;-77
2022/09/02 09:47:10;;;;;;;0.65;0.10;;;;;;;44.07;23.67;101092.03;4947564;28;98430;-78
2022/09/02 09:50:34;;;;;;;0.10;0.00;;;;;;;42.48;24.54;101084.34;4958856;28;98721;-78
2022/09/02 09:54:32;;;;;;;0.68;0.00;;;;;;;41.27;24.89;101079.78;4952610;28;98283;-76
2022/09/02 09:58:05;;;;;;;0.47;0.00;;;;;;;43.35;23.41;101080.66;4855515;28;99050;-78
2022/09/02 10:01:10;;;;;;;0.00;0.00;;;;;;;44.12;22.77;101075.59;4914948;28;98329;-78
2022/09/02 10:04:35;;;;;;;0.28;0.10;;;;;;;44.69;22.43;101064.81;4945111;28;97777;-75
2022/09/02 10:07:51;;;;;;;0.57;0.05;;;;;;;44.76;22.25;101067.22;4945391;28;97913;-76
2022/09/02 10:11:14;;;;;;;0.00;0.00;;;;;;;45.69;21.95;101064.75;4961375;28;98726;-76
2022/09/02 10:14:32;;;;;;;0.40;0.10;;;;;;;46.04;21.26;101052.50;4972514;28;98331;-76
2022/09/02 10:22:24;;;;;;;0.10;0.10;;;;;;;43.26;22.92;101045.88;4947971;28;99765;-75
2022/09/02 10:26:20;;;;;;;1.13;0.10;;;;;;;45.30;21.76;101042.22;4964686;28;98083;-74
2022/09/02 10:29:40;;;;;;;0.20;0.00;;;;;;;42.49;23.91;101029.31;4929688;28;98053;-68
2022/09/02 10:33:08;;;;;;;0.20;0.10;;;;;;;38.76;26.35;101024.84;4954183;28;98110;-68
2022/09/02 10:36:44;;;;;;;0.30;0.10;;;;;;;35.97;27.46;101014.66;4969403;28;98623;-77
2022/09/02 10:40:37;;;;;;;0.00;0.00;;;;;;;33.65;28.51;101020.50;4946752;28;98160;-76
2022/09/02 10:44:18;;;;;;;0.10;0.00;;;;;;;34.27;27.87;101013.94;4862924;28;98071;-67
2022/09/02 10:47:23;;;;;;;0.68;0.00;;;;;;;32.37;28.69;101025.53;4935353;28;98421;-67
2022/09/02 10:50:46;;;;;;;0.30;0.10;;;;;;;32.02;28.80;101027.22;4936830;28;97900;-67
2022/09/02 10:54:08;;;;;;;0.22;0.03;;;;;;;30.61;29.50;101022.97;4936474;28;98172;-75
2022/09/02 10:57:21;;;;;;;0.17;0.00;;;;;;;29.60;30.59;101027.09;4959144;28;99076;-66
2022/09/02 11:00:50;;;;;;;1.90;0.10;;;;;;;28.75;31.01;101024.16;4933655;28;98205;-66
2022/09/02 11:04:14;;;;;;;0.40;0.05;;;;;;;28.13;30.88;101021.72;4955547;28;98155;-66
2022/09/02 11:07:22;;;;;;;0.30;0.10;;;;;;;28.53;30.37;101021.13;4938173;28;98363;-74
2022/09/02 11:11:03;;;;;;;0.25;0.03;;;;;;;27.45;31.29;101014.28;4957949;28;98500;-66
2022/09/02 11:14:53;;;;;;;0.10;0.00;;;;;;;26.59;31.91;101027.22;4880528;28;99026;-74
2022/09/02 11:18:16;;;;;;;0.10;0.00;;;;;;;26.10;32.42;101015.84;4871151;28;97985;-74
2022/09/02 11:21:46;;;;;;;2.67;0.10;;;;;;;25.85;32.42;101009.72;4946821;28;98262;-74
2022/09/02 11:25:11;;;;;;;0.55;0.00;;;;;;;26.67;31.45;101011.59;4951443;28;98305;-73
2022/09/02 11:28:26;;;;;;;0.38;0.10;;;;;;;26.15;32.32;101005.31;4936849;28;98122;-73
2022/09/02 11:31:48;;;;;;;1.20;0.10;;;;;;;25.65;32.70;101004.09;4949474;28;99815;-73
2022/09/02 11:35:09;;;;;;;1.20;0.10;;;;;;;25.19;32.96;101012.00;4955183;28;98042;-74
2022/09/02 11:38:28;;;;;;;0.17;0.08;;;;;;;24.91;33.38;101006.47;4950958;28;98080;-65
2022/09/02 11:41:30;;;;;;;2.92;0.10;;;;;;;24.72;33.70;101007.13;4937281;28;98337;-65
2022/09/02 11:45:27;;;;;;;0.30;0.10;;;;;;;24.48;33.88;101009.94;4949334;28;97922;-65
2022/09/02 11:49:07;;;;;;;0.90;0.10;;;;;;;24.27;33.71;101012.84;4921706;28;98377;-65
2022/09/02 11:52:51;;;;;;;0.10;0.00;;;;;;;24.19;33.72;101013.78;4946208;28;98664;-65
2022/09/02 11:56:29;;;;;;;2.08;0.10;;;;;;;24.10;33.83;101002.09;4940698;28;97929;-72
2022/09/02 11:59:52;;;;;;;0.32;0.10;;;;;;;23.91;34.30;101006.22;4907062;28;97851;-65
2022/09/02 12:03:46;;;;;;;0.40;0.10;;;;;;;23.76;34.43;101002.19;4925016;28;98301;-65
2022/09/02 12:06:59;;;;;;;0.50;0.10;;;;;;;23.66;34.52;101010.94;4930635;28;97978;-65
2022/09/02 12:11:06;;;;;;;0.20;0.00;;;;;;;23.71;34.53;101002.44;4928081;28;98665;-65
2022/09/02 12:14:21;;;;;;;0.20;0.00;;;;;;;23.80;34.32;101002.31;4847636;28;98949;-73
2022/09/02 12:18:09;;;;;;;3.13;0.10;;;;;;;24.08;34.02;100993.38;4870870;28;98164;-65
2022/09/02 12:21:15;;;;;;;0.43;0.10;;;;;;;26.04;32.30;100984.13;4926087;28;98289;-65
2022/09/02 12:24:53;;;;;;;0.35;0.10;;;;;;;28.54;29.94;100995.00;4950319;28;98489;-73
2022/09/02 12:28:20;;;;;;;0.30;0.10;;;;;;;29.54;29.37;100996.06;4951319;28;97848;-66
2022/09/02 12:32:01;;;;;;;0.40;0.10;;;;;;;30.75;28.68;100990.50;4938488;28;99062;-66
2022/09/02 12:35:36;;;;;;;0.32;0.10;;;;;;;30.01;30.11;100990.88;4950588;28;98475;-74
2022/09/02 12:39:18;;;;;;;0.70;0.10;;;;;;;28.71;31.53;100970.63;4921395;28;98417;-74
2022/09/02 12:42:43;;;;;;;0.15;0.00;;;;;;;29.54;30.20;100973.03;4960305;28;98105;-66
2022/09/02 12:45:41;;;;;;;0.10;0.00;;;;;;;30.47;29.23;100962.56;4888928;28;98098;-76
2022/09/02 12:48:49;;;;;;;0.20;0.00;;;;;;;30.60;28.96;100963.00;4950218;28;98353;-75
2022/09/02 12:52:12;;;;;;;0.20;0.00;;;;;;;30.56;28.84;100949.88;4948224;28;98162;-76
2022/09/02 12:55:15;;;;;;;0.17;0.00;;;;;;;30.47;28.67;100945.88;4930787;28;98189;-67
2022/09/02 12:58:29;;;;;;;0.20;0.00;;;;;;;30.57;28.85;100947.88;4941816;28;97978;-76
2022/09/02 13:02:01;;;;;;;0.30;0.00;;;;;;;30.81;28.63;100946.38;4940641;28;98491;-67
2022/09/02 13:05:17;;;;;;;0.10;0.00;;;;;;;30.85;28.77;100954.72;4934494;28;97929;-66
2022/09/02 13:08:44;;;;;;;0.10;0.00;;;;;;;31.10;28.79;100938.09;4934521;28;98846;-75
2022/09/02 13:12:25;;;;;;;0.45;0.10;;;;;;;30.70;29.29;100929.66;4904478;28;98229;-76
2022/09/02 13:16:02;;;;;;;0.35;0.05;;;;;;;29.80;30.17;100930.44;4941416;28;98753;-76
2022/09/02 13:19:41;;;;;;;0.77;0.10;;;;;;;29.22;30.74;100929.16;4951592;28;100093;-66
2022/09/02 13:23:41;;;;;;;0.10;0.00;;;;;;;28.52;30.73;100932.78;4962674;28;99729;-66
2022/09/02 13:27:40;;;;;;;0.20;0.10;;;;;;;27.95;31.53;100927.28;4871389;28;98211;-66
2022/09/02 13:31:36;;;;;;;0.75;0.10;;;;;;;27.48;31.51;100911.94;4925316;28;98697;-75
2022/09/02 13:34:38;;;;;;;0.10;0.00;;;;;;;26.98;32.06;100919.38;4909914;28;98278;-74
2022/09/02 13:38:17;;;;;;;1.23;0.15;;;;;;;26.53;32.56;100918.13;4930427;28;97927;-66
2022/09/02 13:41:33;;;;;;;0.17;0.00;;;;;;;26.13;32.68;100921.22;4931892;28;98399;-65
2022/09/02 13:44:53;;;;;;;0.30;0.08;;;;;;;25.85;32.57;100921.38;4931526;28;98651;-73
2022/09/02 13:47:58;;;;;;;1.50;0.30;;;;;;;25.65;32.81;100923.25;4945741;28;98281;-74
2022/09/02 13:51:01;;;;;;;1.92;0.20;;;;;;;25.49;32.77;100917.78;4933038;28;98114;-66
2022/09/02 13:54:09;;;;;;;2.15;0.30;;;;;;;25.43;32.89;100917.25;4926739;28;98015;-66
2022/09/02 13:57:12;;;;;;;1.65;0.20;;;;;;;25.23;33.16;100907.31;4924261;28;98099;-66
2022/09/02 14:00:27;;;;;;;1.40;0.10;;;;;;;25.03;33.44;100920.13;4939987;28;98178;-66
2022/09/02 14:03:40;;;;;;;0.20;0.08;;;;;;;24.85;33.68;100914.16;4938770;28;98051;-66
2022/09/02 14:06:35;;;;;;;;;;;;;;;24.82;33.39;100909.34;4950244;28;98218;-66
2022/09/02 14:10:02;;;;;;;0.50;0.03;;;;;;;24.64;33.72;100908.06;4940382;28;98642;-65
2022/09/02 14:13:07;;;;;;;0.32;0.10;;;;;;;24.58;34.09;100901.22;4904238;28;98388;-73
2022/09/02 14:16:20;;;;;;;1.67;0.20;;;;;;;24.52;34.04;100899.84;4946416;28;99707;-65
2022/09/02 14:19:52;;;;;;;0.77;0.10;;;;;;;24.41;34.07;100899.56;4936956;28;98523;-73
2022/09/02 14:23:25;;;;;;;0.50;0.10;;;;;;;24.25;34.20;100902.25;4902519;28;98887;-73
2022/09/02 14:27:20;;;;;;;0.40;0.10;;;;;;;24.20;34.10;100895.00;4906440;28;98607;-73
2022/09/02 14:30:31;;;;;;;0.38;0.10;;;;;;;24.40;33.89;100896.00;4881475;28;98186;-73
2022/09/02 14:33:44;;;;;;;0.47;0.10;;;;;;;24.59;34.09;100887.06;4872952;28;98423;-65
2022/09/02 14:37:03;;;;;;;0.50;0.10;;;;;;;24.71;33.55;100886.22;4931683;28;100105;-72
2022/09/02 14:40:18;;;;;;;0.20;0.00;;;;;;;24.63;33.91;100878.91;4944911;28;98033;-73
2022/09/02 14:43:58;;;;;;;0.65;0.00;;;;;;;24.38;33.97;100872.69;4934067;28;98450;-65
2022/09/02 14:47:28;;;;;;;0.30;0.10;;;;;;;24.03;34.06;100881.53;4909663;28;98365;-72
2022/09/02 14:50:34;;;;;;;0.70;0.10;;;;;;;23.73;34.29;100881.00;4944312;28;98209;-72
2022/09/02 14:53:48;;;;;;;0.30;0.05;;;;;;;23.56;34.41;100893.03;4929122;28;98097;-65
2022/09/02 14:57:51;;;;;;;0.08;0.00;;;;;;;23.57;34.28;100885.59;4929278;28;99628;-72
2022/09/02 15:00:54;;;;;;;0.05;0.00;;;;;;;23.49;34.30;100879.84;4883192;28;97957;-65
2022/09/02 15:03:58;;;;;;;0.25;0.00;;;;;;;23.55;33.99;100874.94;4938258;28;98154;-65
2022/09/02 15:07:00;;;;;;;0.15;0.00;;;;;;;23.48;34.20;100875.50;4946997;28;98105;-73
2022/09/02 15:10:02;;;;;;;0.10;0.00;;;;;;;23.34;34.48;100888.78;4926170;28;98003;-65